Dresden Station, New York
Current Conditions -  °F | °C
As of 10:53 AM on Friday 19 Dec 2014 (Local Time) from KGFL Reporting Station
Overcast Overcast  
Wind Chill: 22°   Ceiling: 3700
Heat Index: 31°   Visibility: 10mi
Dew Point: 19°   Wind: 12mph
Humidity: 61%   Direction: 350°N
Pressure: 30.04"   Gusts: NA
Location:  43.5434°N, 73.356°W
Report Text: KGFL 191553Z AUTO 35010KT 10SM OVC037 M01/M07 A3004 RMK AO2 SLP181 T10061072
Loading
Personal Weather Stations






























Interactive Weather Map New forecast layout! Learn more

10-Day Weather Forecast

Advertisements
Track Severe Weather on mobile